createdAt,value
2022-10-17T00:01:53.465Z,276
2022-10-17T00:03:59.450Z,273
2022-10-17T00:06:05.692Z,273
2022-10-17T00:08:10.868Z,272
2022-10-17T00:10:16.316Z,273
2022-10-17T00:12:21.727Z,272
2022-10-17T00:14:26.661Z,272
2022-10-17T00:16:31.746Z,272
2022-10-17T00:18:37.071Z,272
2022-10-17T00:20:42.401Z,272
2022-10-17T00:22:47.775Z,272
2022-10-17T00:24:52.988Z,272
2022-10-17T00:26:58.608Z,272
2022-10-17T00:29:04.361Z,273
2022-10-17T00:31:09.794Z,272
2022-10-17T00:33:14.837Z,273
2022-10-17T00:35:20.040Z,272
2022-10-17T00:37:25.817Z,273
2022-10-17T00:39:30.856Z,272
2022-10-17T00:41:36.277Z,272
2022-10-17T00:43:41.550Z,272
2022-10-17T00:45:46.884Z,272
2022-10-17T00:47:52.238Z,271
2022-10-17T00:49:57.691Z,271
2022-10-17T00:52:02.868Z,272
2022-10-17T00:54:08.056Z,273
2022-10-17T00:56:13.058Z,273
2022-10-17T00:58:18.349Z,273
2022-10-17T01:00:23.566Z,270
2022-10-17T01:02:29.830Z,279
2022-10-17T01:04:35.811Z,277
2022-10-17T01:06:41.040Z,277
2022-10-17T01:08:46.542Z,277
2022-10-17T01:10:51.555Z,279
2022-10-17T01:12:56.697Z,277
2022-10-17T01:15:01.885Z,277
2022-10-17T01:17:07.181Z,276
2022-10-17T01:19:12.467Z,276
2022-10-17T01:21:18.225Z,277
2022-10-17T01:23:23.588Z,277
2022-10-17T01:25:28.759Z,277
2022-10-17T01:27:34.479Z,277
2022-10-17T01:29:39.606Z,277
2022-10-17T01:31:44.841Z,277
2022-10-17T01:33:49.862Z,276
2022-10-17T01:35:55.331Z,274
2022-10-17T01:38:00.485Z,274
2022-10-17T01:40:05.648Z,276
2022-10-17T01:42:10.906Z,274
2022-10-17T01:44:16.428Z,277
2022-10-17T01:46:21.766Z,277
2022-10-17T01:48:26.916Z,277
2022-10-17T01:50:32.099Z,277
2022-10-17T01:52:37.681Z,277
2022-10-17T01:54:43.969Z,277
2022-10-17T01:56:48.992Z,277
2022-10-17T01:58:54.518Z,277
2022-10-17T02:00:59.947Z,277
2022-10-17T02:03:05.191Z,277
2022-10-17T02:05:10.399Z,277
2022-10-17T02:07:15.709Z,277
2022-10-17T02:09:24.020Z,277
2022-10-17T02:11:29.212Z,277
2022-10-17T02:13:34.803Z,277
2022-10-17T02:15:42.936Z,277
2022-10-17T02:17:48.213Z,277
2022-10-17T02:19:53.313Z,277
2022-10-17T02:22:01.912Z,277
2022-10-17T02:24:07.297Z,277
2022-10-17T02:26:12.304Z,277
2022-10-17T02:28:20.864Z,277
2022-10-17T02:30:26.774Z,277
2022-10-17T02:32:32.081Z,277
2022-10-17T02:34:37.321Z,277
2022-10-17T02:36:42.466Z,277
2022-10-17T02:38:48.170Z,277
2022-10-17T02:40:53.314Z,277
2022-10-17T02:42:58.477Z,276
2022-10-17T02:45:03.583Z,276
2022-10-17T02:47:08.656Z,276
2022-10-17T02:49:13.746Z,274
2022-10-17T02:51:18.895Z,277
2022-10-17T02:53:23.978Z,277
2022-10-17T02:55:29.041Z,274
2022-10-17T02:57:34.188Z,274
2022-10-17T02:59:39.408Z,274
2022-10-17T03:01:44.838Z,274
2022-10-17T03:03:50.419Z,274
2022-10-17T03:05:56.101Z,276
2022-10-17T03:08:01.237Z,276
2022-10-17T03:10:06.498Z,274
2022-10-17T03:12:11.762Z,276
2022-10-17T03:14:17.007Z,276
2022-10-17T03:16:22.195Z,276
2022-10-17T03:18:27.315Z,274
2022-10-17T03:20:32.783Z,276
2022-10-17T03:22:37.877Z,276
2022-10-17T03:24:42.877Z,276
2022-10-17T03:26:49.364Z,276
2022-10-17T03:28:57.150Z,276
2022-10-17T03:31:02.215Z,277
2022-10-17T03:33:07.211Z,277
2022-10-17T03:35:17.609Z,271
2022-10-17T03:37:22.717Z,278
2022-10-17T03:39:27.892Z,277
2022-10-17T03:41:33.134Z,278
2022-10-17T03:43:38.485Z,277
2022-10-17T03:45:44.082Z,277
2022-10-17T03:47:49.820Z,277
2022-10-17T03:49:55.203Z,276
2022-10-17T03:52:00.411Z,277
2022-10-17T03:54:05.734Z,276
2022-10-17T03:56:10.899Z,276
2022-10-17T03:58:16.621Z,277
2022-10-17T04:00:21.933Z,276
2022-10-17T04:02:27.230Z,278
2022-10-17T04:04:33.013Z,277
2022-10-17T04:06:38.363Z,277
2022-10-17T04:08:43.902Z,277
2022-10-17T04:10:49.450Z,277
2022-10-17T04:12:55.018Z,277
2022-10-17T04:15:00.367Z,277
2022-10-17T04:17:06.056Z,277
2022-10-17T04:19:11.794Z,277
2022-10-17T04:21:17.341Z,277
2022-10-17T04:23:23.745Z,278
2022-10-17T04:25:34.746Z,277
2022-10-17T04:27:42.203Z,278
2022-10-17T04:29:47.640Z,278
2022-10-17T04:31:52.803Z,277
2022-10-17T04:33:58.233Z,278
2022-10-17T04:36:04.064Z,279
2022-10-17T04:38:09.686Z,277
2022-10-17T04:40:15.291Z,279
2022-10-17T04:42:20.514Z,279
2022-10-17T04:44:26.188Z,277
2022-10-17T04:46:31.922Z,277
2022-10-17T04:48:38.218Z,277
2022-10-17T04:50:43.573Z,277
2022-10-17T04:52:48.721Z,277
2022-10-17T04:54:54.450Z,277
2022-10-17T04:56:59.956Z,277
2022-10-17T04:59:05.298Z,277
2022-10-17T05:01:11.124Z,277
2022-10-17T05:03:17.118Z,277
2022-10-17T05:05:22.728Z,277
2022-10-17T05:07:27.910Z,277
2022-10-17T05:09:33.500Z,277
2022-10-17T05:11:39.535Z,277
2022-10-17T05:13:45.984Z,277
2022-10-17T05:15:51.448Z,276
2022-10-17T05:17:56.901Z,277
2022-10-17T05:20:02.329Z,276
2022-10-17T05:22:07.836Z,276
2022-10-17T05:24:13.666Z,277
2022-10-17T05:26:19.528Z,276
2022-10-17T05:28:25.087Z,276
2022-10-17T05:30:36.680Z,277
2022-10-17T05:32:43.201Z,277
2022-10-17T05:34:48.784Z,277
2022-10-17T05:36:54.272Z,277
2022-10-17T05:38:59.703Z,277
2022-10-17T05:41:05.244Z,277
2022-10-17T05:43:11.123Z,278
2022-10-17T05:45:17.389Z,278
2022-10-17T05:47:23.905Z,278
2022-10-17T05:49:52.417Z,278
2022-10-17T05:51:58.975Z,277
2022-10-17T05:54:04.804Z,279
2022-10-17T05:56:10.334Z,278
2022-10-17T05:58:53.328Z,278
2022-10-17T06:01:09.330Z,276
2022-10-17T06:03:18.503Z,277
2022-10-17T06:05:27.637Z,277
2022-10-17T06:07:33.651Z,277
2022-10-17T06:09:39.748Z,276
2022-10-17T06:11:46.051Z,278
2022-10-17T06:13:52.156Z,278
2022-10-17T06:15:57.801Z,278
2022-10-17T06:18:02.986Z,278
2022-10-17T06:20:08.807Z,278
2022-10-17T06:22:14.233Z,278
2022-10-17T06:24:19.700Z,278
2022-10-17T06:26:25.182Z,278
2022-10-17T06:28:31.803Z,278
2022-10-17T06:30:37.263Z,277
2022-10-17T06:32:42.910Z,277
2022-10-17T06:34:48.575Z,276
2022-10-17T06:36:54.829Z,277
2022-10-17T06:39:01.358Z,278
2022-10-17T06:41:06.804Z,278
2022-10-17T06:43:12.529Z,279
2022-10-17T06:45:18.206Z,279
2022-10-17T06:47:24.353Z,278
2022-10-17T06:49:29.935Z,278
2022-10-17T06:51:35.545Z,278
2022-10-17T06:53:40.758Z,277
2022-10-17T06:55:45.996Z,277
2022-10-17T06:57:51.744Z,277
2022-10-17T06:59:57.687Z,278
2022-10-17T07:02:02.994Z,277
2022-10-17T07:04:11.323Z,277
2022-10-17T07:06:17.000Z,277
2022-10-17T07:08:22.751Z,277
2022-10-17T07:10:28.602Z,278
2022-10-17T07:12:33.991Z,278
2022-10-17T07:14:39.503Z,278
2022-10-17T07:16:45.310Z,278
2022-10-17T07:18:50.897Z,277
2022-10-17T07:20:56.453Z,277
2022-10-17T07:23:02.110Z,277
2022-10-17T07:25:08.372Z,272
2022-10-17T07:27:13.726Z,272
2022-10-17T07:29:19.283Z,272
2022-10-17T07:31:24.732Z,272
2022-10-17T07:33:30.048Z,272
2022-10-17T07:35:35.387Z,272
2022-10-17T07:37:41.476Z,272
2022-10-17T07:39:47.731Z,272
2022-10-17T07:41:52.762Z,272
2022-10-17T07:43:58.290Z,272
2022-10-17T07:46:03.722Z,272
2022-10-17T07:48:09.573Z,271
2022-10-17T07:50:15.712Z,272
2022-10-17T07:52:21.903Z,271
2022-10-17T07:54:27.552Z,271
2022-10-17T07:56:33.027Z,272
2022-10-17T07:58:38.314Z,271
2022-10-17T08:00:44.542Z,271
2022-10-17T08:02:50.684Z,272
2022-10-17T08:04:56.812Z,272
2022-10-17T08:07:28.484Z,279
2022-10-17T08:09:34.991Z,280
2022-10-17T08:11:41.043Z,279
2022-10-17T08:13:48.929Z,279
2022-10-17T08:15:57.191Z,278
2022-10-17T08:18:02.412Z,277
2022-10-17T08:20:07.741Z,277
2022-10-17T08:22:13.122Z,279
2022-10-17T08:24:18.310Z,279
2022-10-17T08:26:23.991Z,279
2022-10-17T08:28:29.693Z,279
2022-10-17T08:30:35.106Z,279
2022-10-17T08:32:40.757Z,279
2022-10-17T08:34:46.861Z,279
2022-10-17T08:36:52.495Z,279
2022-10-17T08:38:57.942Z,278
2022-10-17T08:41:03.177Z,279
2022-10-17T08:43:08.365Z,279
2022-10-17T08:45:14.294Z,278
2022-10-17T08:47:19.835Z,278
2022-10-17T08:49:25.158Z,278
2022-10-17T08:51:30.585Z,278
2022-10-17T08:53:35.738Z,278
2022-10-17T08:55:47.122Z,278
2022-10-17T08:57:53.469Z,278
2022-10-17T08:59:58.766Z,278
2022-10-17T09:02:03.989Z,278
2022-10-17T09:04:09.256Z,277
2022-10-17T09:06:14.523Z,269
2022-10-17T09:08:20.548Z,269
2022-10-17T09:10:26.443Z,269
2022-10-17T09:12:33.885Z,270
2022-10-17T09:14:39.309Z,270
2022-10-17T09:16:44.535Z,270
2022-10-17T09:18:50.260Z,270
2022-10-17T09:20:56.311Z,270
2022-10-17T09:23:07.964Z,270
2022-10-17T09:25:16.149Z,270
2022-10-17T09:27:21.515Z,270
2022-10-17T09:29:35.446Z,270
2022-10-17T09:31:49.079Z,270
2022-10-17T09:33:57.403Z,270
2022-10-17T09:36:03.827Z,270
2022-10-17T09:38:09.615Z,270
2022-10-17T09:40:14.986Z,270
2022-10-17T09:42:20.631Z,270
2022-10-17T09:44:25.739Z,267
2022-10-17T09:46:31.640Z,268
2022-10-17T09:48:37.165Z,273
2022-10-17T09:50:43.247Z,268
2022-10-17T09:52:49.003Z,278
2022-10-17T09:54:54.516Z,278
2022-10-17T09:57:00.024Z,280
2022-10-17T09:59:05.980Z,279
2022-10-17T10:01:26.022Z,276
2022-10-17T10:03:32.503Z,272
2022-10-17T10:05:38.696Z,268
2022-10-17T10:07:44.349Z,272
2022-10-17T10:09:50.188Z,272
2022-10-17T10:11:55.947Z,274
2022-10-17T10:14:01.245Z,279
2022-10-17T10:16:07.592Z,279
2022-10-17T10:18:13.798Z,277
2022-10-17T10:20:19.904Z,277
2022-10-17T10:22:25.806Z,279
2022-10-17T10:24:34.132Z,279
2022-10-17T10:26:39.672Z,279
2022-10-17T10:28:46.405Z,280
2022-10-17T10:30:52.585Z,280
2022-10-17T10:32:58.173Z,279
2022-10-17T10:35:03.315Z,280
2022-10-17T10:37:10.506Z,280
2022-10-17T10:39:20.866Z,280
2022-10-17T10:41:26.083Z,280
2022-10-17T10:43:31.452Z,280
2022-10-17T10:45:50.795Z,280
2022-10-17T10:47:56.323Z,280
2022-10-17T10:50:01.762Z,280
2022-10-17T10:52:07.278Z,280
2022-10-17T10:54:12.543Z,280
2022-10-17T10:56:18.635Z,274
2022-10-17T10:58:24.084Z,273
2022-10-17T11:00:29.940Z,280
2022-10-17T11:02:35.684Z,281
2022-10-17T11:04:42.125Z,281
2022-10-17T11:06:47.547Z,281
2022-10-17T11:08:53.113Z,281
2022-10-17T11:10:59.428Z,282
2022-10-17T11:13:04.864Z,281
2022-10-17T11:15:10.776Z,281
2022-10-17T11:17:16.907Z,282
2022-10-17T11:19:22.880Z,278
2022-10-17T11:21:28.457Z,280
2022-10-17T11:23:34.353Z,280
2022-10-17T11:25:41.734Z,280
2022-10-17T11:27:47.648Z,280
2022-10-17T11:29:53.198Z,280
2022-10-17T11:31:58.881Z,280
2022-10-17T11:34:04.434Z,280
2022-10-17T11:36:09.927Z,277
2022-10-17T11:38:15.406Z,278
2022-10-17T11:40:25.967Z,280
2022-10-17T11:42:32.513Z,280
2022-10-17T11:44:38.019Z,277
2022-10-17T11:46:43.487Z,279
2022-10-17T11:48:48.921Z,279
2022-10-17T11:52:02.762Z,280
2022-10-17T11:54:08.648Z,279
2022-10-17T11:56:14.017Z,278
2022-10-17T11:58:19.961Z,281
2022-10-17T12:00:25.295Z,280
2022-10-17T12:02:32.284Z,281
2022-10-17T12:04:38.061Z,279
2022-10-17T12:06:52.637Z,268
2022-10-17T12:08:58.945Z,279
2022-10-17T12:11:04.773Z,278
2022-10-17T12:13:10.374Z,282
2022-10-17T12:15:16.311Z,279
2022-10-17T12:17:21.989Z,278
2022-10-17T12:19:27.311Z,278
2022-10-17T12:21:34.588Z,279
2022-10-17T12:23:39.955Z,277
2022-10-17T12:25:46.093Z,279
2022-10-17T12:28:20.894Z,273
2022-10-17T12:30:27.254Z,273
2022-10-17T12:33:08.315Z,273
2022-10-17T12:35:14.823Z,277
2022-10-17T12:37:22.463Z,279
2022-10-17T12:39:28.675Z,279
2022-10-17T12:41:34.806Z,280
2022-10-17T12:43:46.337Z,278
2022-10-17T12:45:52.541Z,270
2022-10-17T12:47:59.366Z,277
2022-10-17T12:50:05.868Z,277
2022-10-17T12:52:12.192Z,276
2022-10-17T12:54:18.268Z,279
2022-10-17T12:56:23.824Z,278
2022-10-17T12:58:29.722Z,272
2022-10-17T13:00:36.060Z,272
2022-10-17T13:02:42.529Z,270
2022-10-17T13:04:47.706Z,279
2022-10-17T13:06:53.390Z,279
2022-10-17T13:09:07.188Z,278
2022-10-17T13:11:12.947Z,277
2022-10-17T13:13:19.137Z,279
2022-10-17T13:15:24.740Z,277
2022-10-17T13:17:30.175Z,279
2022-10-17T13:21:41.641Z,279
2022-10-17T13:23:47.235Z,273
2022-10-17T13:25:53.669Z,273
2022-10-17T13:27:59.321Z,268
2022-10-17T13:30:04.708Z,264
2022-10-17T13:32:10.604Z,276
2022-10-17T13:34:15.986Z,273
2022-10-17T13:36:21.388Z,274
2022-10-17T13:38:27.204Z,273
2022-10-17T13:40:57.987Z,277
2022-10-17T13:43:34.326Z,274
2022-10-17T13:45:40.174Z,265
2022-10-17T13:47:46.218Z,266
2022-10-17T13:49:58.050Z,281
2022-10-17T13:52:04.905Z,280
2022-10-17T13:54:10.428Z,279
2022-10-17T13:56:32.884Z,276
2022-10-17T13:58:38.983Z,270
2022-10-17T14:00:44.846Z,276
2022-10-17T14:02:50.926Z,268
2022-10-17T14:05:23.986Z,276
2022-10-17T14:08:09.823Z,273
2022-10-17T14:10:20.278Z,276
2022-10-17T14:12:26.306Z,269
2022-10-17T14:15:10.371Z,273
2022-10-17T14:17:16.822Z,274
2022-10-17T14:19:22.579Z,279
2022-10-17T14:21:46.798Z,272
2022-10-17T14:23:52.556Z,273
2022-10-17T14:25:58.428Z,274
2022-10-17T14:28:04.329Z,268
2022-10-17T14:30:10.308Z,274
2022-10-17T14:32:15.838Z,270
2022-10-17T14:34:21.307Z,272
2022-10-17T14:36:26.452Z,271
2022-10-17T14:38:32.010Z,276
2022-10-17T14:40:37.940Z,268
2022-10-17T14:42:43.557Z,276
2022-10-17T14:44:48.883Z,276
2022-10-17T14:46:54.708Z,276
2022-10-17T14:49:00.253Z,277
2022-10-17T14:51:06.123Z,276
2022-10-17T14:53:12.243Z,276
2022-10-17T14:55:18.876Z,276
2022-10-17T14:57:26.117Z,276
2022-10-17T14:59:57.530Z,276
2022-10-17T15:02:03.446Z,277
2022-10-17T15:04:09.711Z,277
2022-10-17T15:06:16.269Z,276
2022-10-17T15:08:22.289Z,276
2022-10-17T15:10:28.872Z,276
2022-10-17T15:12:35.352Z,276
2022-10-17T15:14:41.836Z,276
2022-10-17T15:16:48.736Z,276
2022-10-17T15:18:55.244Z,276
2022-10-17T15:21:38.369Z,276
2022-10-17T15:23:51.911Z,274
2022-10-17T15:25:58.481Z,274
2022-10-17T15:28:05.135Z,274
2022-10-17T15:30:11.510Z,273
2022-10-17T15:32:18.159Z,273
2022-10-17T15:34:24.553Z,274
2022-10-17T15:36:31.127Z,272
2022-10-17T15:38:38.390Z,273
2022-10-17T15:40:44.524Z,274
2022-10-17T15:42:50.861Z,274
2022-10-17T15:44:57.191Z,274
2022-10-17T15:47:03.664Z,273
2022-10-17T15:49:09.671Z,274
2022-10-17T15:51:15.772Z,270
2022-10-17T15:53:22.218Z,277
2022-10-17T15:55:28.229Z,277
2022-10-17T15:57:35.405Z,278
2022-10-17T15:59:42.919Z,277
2022-10-17T16:01:48.796Z,276
2022-10-17T16:03:55.141Z,274
2022-10-17T16:06:01.258Z,274
2022-10-17T16:08:07.273Z,276
2022-10-17T16:10:13.410Z,273
2022-10-17T16:14:27.481Z,274
2022-10-17T16:16:35.309Z,276
2022-10-17T16:18:41.667Z,274
2022-10-17T16:20:47.925Z,276
2022-10-17T16:22:54.307Z,274
2022-10-17T16:25:01.228Z,276
2022-10-17T16:27:07.268Z,274
2022-10-17T16:29:16.249Z,274
2022-10-17T16:31:23.072Z,274
2022-10-17T16:33:29.916Z,272
2022-10-17T16:35:40.685Z,268
2022-10-17T16:37:47.614Z,273
2022-10-17T16:39:54.191Z,270
2022-10-17T16:42:01.854Z,279
2022-10-17T16:44:08.328Z,270
2022-10-17T16:46:14.566Z,274
2022-10-17T16:48:21.792Z,279
2022-10-17T16:50:34.502Z,267
2022-10-17T16:52:41.442Z,279
2022-10-17T16:54:47.337Z,274
2022-10-17T16:56:53.699Z,274
2022-10-17T16:59:00.684Z,272
2022-10-17T17:01:10.123Z,274
2022-10-17T17:03:20.242Z,274
2022-10-17T17:05:29.003Z,274
2022-10-17T17:07:39.091Z,274
2022-10-17T17:09:46.028Z,276
2022-10-17T17:11:52.864Z,280
2022-10-17T17:13:59.861Z,274
2022-10-17T17:16:06.854Z,274
2022-10-17T17:18:16.256Z,274
2022-10-17T17:20:29.109Z,274
2022-10-17T17:22:39.327Z,274
2022-10-17T17:26:55.938Z,274
2022-10-17T17:29:05.495Z,276
2022-10-17T17:31:13.711Z,276
2022-10-17T17:33:22.785Z,274
2022-10-17T17:35:31.481Z,276
2022-10-17T17:37:47.268Z,273
2022-10-17T17:39:54.635Z,273
2022-10-17T17:42:03.179Z,281
2022-10-17T17:44:19.330Z,281
2022-10-17T17:46:27.697Z,281
2022-10-17T17:48:36.284Z,279
2022-10-17T17:50:44.643Z,277
2022-10-17T17:52:54.763Z,277
2022-10-17T17:55:05.768Z,278
2022-10-17T17:57:14.867Z,276
2022-10-17T17:59:24.056Z,276
2022-10-17T18:01:31.235Z,278
2022-10-17T18:03:39.130Z,270
2022-10-17T18:05:48.082Z,267
2022-10-17T18:07:57.786Z,272
2022-10-17T18:10:06.328Z,273
2022-10-17T18:12:14.006Z,272
2022-10-17T18:14:29.354Z,272
2022-10-17T18:16:43.234Z,268
2022-10-17T18:18:51.042Z,272
2022-10-17T18:20:58.652Z,274
2022-10-17T18:23:08.989Z,273
2022-10-17T18:25:22.181Z,273
2022-10-17T18:27:30.340Z,270
2022-10-17T18:29:37.346Z,273
2022-10-17T18:31:46.053Z,273
2022-10-17T18:33:53.206Z,272
2022-10-17T18:36:09.833Z,272
2022-10-17T18:38:23.482Z,273
2022-10-17T18:40:33.172Z,273
2022-10-17T18:42:42.586Z,273
2022-10-17T18:44:52.016Z,273
2022-10-17T18:47:09.475Z,273
2022-10-17T18:49:18.556Z,273
2022-10-17T18:51:28.237Z,272
2022-10-17T18:53:42.193Z,270
2022-10-17T18:55:51.512Z,272
2022-10-17T18:58:02.571Z,272
2022-10-17T19:00:18.243Z,273
2022-10-17T19:02:27.522Z,273
2022-10-17T19:04:44.114Z,274
2022-10-17T19:06:50.782Z,274
2022-10-17T19:09:00.091Z,271
2022-10-17T19:11:12.978Z,276
2022-10-17T19:13:24.432Z,277
2022-10-17T19:15:37.611Z,276
2022-10-17T19:17:45.782Z,274
2022-10-17T19:19:52.944Z,274
2022-10-17T19:22:00.220Z,273
2022-10-17T19:24:08.711Z,273
2022-10-17T19:26:16.485Z,273
2022-10-17T19:28:24.123Z,273
2022-10-17T19:30:33.405Z,273
2022-10-17T19:32:40.374Z,267
2022-10-17T19:34:48.567Z,274
2022-10-17T19:36:57.130Z,273
2022-10-17T19:39:05.782Z,273
2022-10-17T19:41:16.498Z,274
2022-10-17T19:43:26.002Z,273
2022-10-17T19:45:35.320Z,274
2022-10-17T19:47:42.751Z,274
2022-10-17T19:50:07.713Z,274
2022-10-17T19:52:16.029Z,267
2022-10-17T19:54:23.777Z,272
2022-10-17T19:56:30.600Z,274
2022-10-17T19:58:38.715Z,274
2022-10-17T20:00:47.688Z,274
2022-10-17T20:02:56.233Z,274
2022-10-17T20:05:28.209Z,266
2022-10-17T20:07:35.011Z,274
2022-10-17T20:09:41.327Z,276
2022-10-17T20:11:50.683Z,276
2022-10-17T20:13:58.739Z,276
2022-10-17T20:16:08.551Z,268
2022-10-17T20:18:15.573Z,273
2022-10-17T20:20:25.449Z,271
2022-10-17T20:22:34.448Z,272
2022-10-17T20:24:40.784Z,273
2022-10-17T20:26:47.906Z,272
2022-10-17T20:28:54.774Z,272
2022-10-17T20:31:01.219Z,270
2022-10-17T20:33:07.763Z,270
2022-10-17T20:35:15.468Z,273
2022-10-17T20:37:22.509Z,268
2022-10-17T20:39:28.611Z,270
2022-10-17T20:41:34.693Z,272
2022-10-17T20:43:40.956Z,271
2022-10-17T20:46:22.104Z,276
2022-10-17T20:48:41.691Z,266
2022-10-17T20:50:48.019Z,269
2022-10-17T20:53:36.803Z,270
2022-10-17T20:55:43.676Z,270
2022-10-17T20:57:48.983Z,270
2022-10-17T20:59:54.765Z,270
2022-10-17T21:02:00.979Z,270
2022-10-17T21:04:53.158Z,271
2022-10-17T21:06:58.297Z,270
2022-10-17T21:09:04.099Z,268
2022-10-17T21:11:09.554Z,270
2022-10-17T21:13:15.285Z,270
2022-10-17T21:15:21.128Z,270
2022-10-17T21:17:26.540Z,272
2022-10-17T21:19:31.973Z,273
2022-10-17T21:21:37.595Z,271
2022-10-17T21:23:42.942Z,272
2022-10-17T21:25:48.194Z,270
2022-10-17T21:27:53.535Z,264
2022-10-17T21:29:58.848Z,274
2022-10-17T21:32:25.063Z,276
2022-10-17T21:34:56.439Z,273
2022-10-17T21:37:01.785Z,273
2022-10-17T21:41:13.050Z,273
2022-10-17T21:43:18.305Z,272
2022-10-17T21:45:28.491Z,274
2022-10-17T21:47:36.209Z,273
2022-10-17T21:49:42.804Z,272
2022-10-17T21:51:48.359Z,271
2022-10-17T21:53:53.803Z,272
2022-10-17T21:55:59.130Z,271
2022-10-17T21:58:05.670Z,268
2022-10-17T22:00:11.893Z,271
2022-10-17T22:02:18.710Z,276
2022-10-17T22:04:24.032Z,276
2022-10-17T22:06:45.289Z,272
2022-10-17T22:08:51.232Z,272
2022-10-17T22:10:57.298Z,271
2022-10-17T22:13:03.315Z,272
2022-10-17T22:15:09.005Z,272
2022-10-17T22:17:15.237Z,273
2022-10-17T22:19:20.755Z,272
2022-10-17T22:21:26.096Z,272
2022-10-17T22:23:31.339Z,272
2022-10-17T22:25:36.772Z,272
2022-10-17T22:27:42.048Z,274
2022-10-17T22:29:47.209Z,270
2022-10-17T22:31:52.696Z,271
2022-10-17T22:33:57.830Z,272
2022-10-17T22:36:03.025Z,274
2022-10-17T22:38:08.381Z,273
2022-10-17T22:40:13.663Z,273
2022-10-17T22:42:19.104Z,273
2022-10-17T22:44:24.350Z,274
2022-10-17T22:46:29.828Z,274
2022-10-17T22:48:35.299Z,276
2022-10-17T22:50:40.520Z,270
2022-10-17T22:52:45.674Z,274
2022-10-17T22:54:50.935Z,274
2022-10-17T22:56:56.242Z,274
2022-10-17T22:59:01.604Z,274
2022-10-17T23:01:07.106Z,274
2022-10-17T23:03:12.659Z,273
2022-10-17T23:05:17.942Z,272
2022-10-17T23:07:23.343Z,273
2022-10-17T23:09:30.168Z,270
2022-10-17T23:11:35.967Z,270
2022-10-17T23:13:41.435Z,273
2022-10-17T23:15:46.819Z,271
2022-10-17T23:17:52.153Z,270
2022-10-17T23:20:00.177Z,273
2022-10-17T23:22:05.289Z,270
2022-10-17T23:24:10.754Z,270
2022-10-17T23:26:15.923Z,272
2022-10-17T23:28:21.199Z,272
2022-10-17T23:30:26.458Z,270
2022-10-17T23:32:33.222Z,272
2022-10-17T23:34:38.948Z,273
2022-10-17T23:36:44.171Z,272
2022-10-17T23:38:51.694Z,272
2022-10-17T23:41:02.572Z,272
2022-10-17T23:43:08.022Z,273
2022-10-17T23:45:13.253Z,273
2022-10-17T23:47:18.670Z,273
2022-10-17T23:49:24.188Z,273
2022-10-17T23:51:29.516Z,272
2022-10-17T23:53:34.802Z,269
2022-10-17T23:55:40.153Z,268
2022-10-17T23:57:46.111Z,270
2022-10-17T23:59:51.254Z,268
